sensor_id;sensor_type;location;lat;lon;timestamp;P1;durP1;ratioP1;P2;durP2;ratioP2
16189;SDS011;41754;51.498;7.540;2023-05-23T00:01:17;13.05;;;11.85;;
16189;SDS011;41754;51.498;7.540;2023-05-23T00:03:45;13.38;;;12.15;;
16189;SDS011;41754;51.498;7.540;2023-05-23T00:06:17;12.73;;;11.43;;
16189;SDS011;41754;51.498;7.540;2023-05-23T00:08:49;12.93;;;11.80;;
16189;SDS011;41754;51.498;7.540;2023-05-23T00:11:17;13.07;;;11.88;;
16189;SDS011;41754;51.498;7.540;2023-05-23T00:13:45;12.32;;;11.13;;
16189;SDS011;41754;51.498;7.540;2023-05-23T00:16:13;14.65;;;11.77;;
16189;SDS011;41754;51.498;7.540;2023-05-23T00:18:41;13.93;;;12.50;;
16189;SDS011;41754;51.498;7.540;2023-05-23T00:21:11;13.88;;;12.45;;
16189;SDS011;41754;51.498;7.540;2023-05-23T00:23:39;13.35;;;11.98;;
16189;SDS011;41754;51.498;7.540;2023-05-23T00:26:08;13.85;;;12.55;;
16189;SDS011;41754;51.498;7.540;2023-05-23T00:28:40;13.85;;;12.52;;
16189;SDS011;41754;51.498;7.540;2023-05-23T00:31:08;13.13;;;11.77;;
16189;SDS011;41754;51.498;7.540;2023-05-23T00:33:36;12.75;;;11.52;;
16189;SDS011;41754;51.498;7.540;2023-05-23T00:36:04;14.20;;;12.70;;
16189;SDS011;41754;51.498;7.540;2023-05-23T00:38:32;14.68;;;13.18;;
16189;SDS011;41754;51.498;7.540;2023-05-23T00:41:00;13.68;;;12.48;;
16189;SDS011;41754;51.498;7.540;2023-05-23T00:43:29;13.65;;;12.35;;
16189;SDS011;41754;51.498;7.540;2023-05-23T00:45:57;12.93;;;11.60;;
16189;SDS011;41754;51.498;7.540;2023-05-23T00:48:26;11.93;;;10.77;;
16189;SDS011;41754;51.498;7.540;2023-05-23T00:50:55;12.10;;;11.00;;
16189;SDS011;41754;51.498;7.540;2023-05-23T00:53:24;12.40;;;11.20;;
16189;SDS011;41754;51.498;7.540;2023-05-23T00:55:52;11.93;;;10.75;;
16189;SDS011;41754;51.498;7.540;2023-05-23T00:58:20;12.73;;;11.45;;
16189;SDS011;41754;51.498;7.540;2023-05-23T01:00:49;11.75;;;10.65;;
16189;SDS011;41754;51.498;7.540;2023-05-23T01:03:19;12.05;;;10.95;;
16189;SDS011;41754;51.498;7.540;2023-05-23T01:05:49;12.82;;;11.45;;
16189;SDS011;41754;51.498;7.540;2023-05-23T01:08:18;12.75;;;11.45;;
16189;SDS011;41754;51.498;7.540;2023-05-23T01:10:46;12.55;;;11.45;;
16189;SDS011;41754;51.498;7.540;2023-05-23T01:13:16;11.63;;;10.60;;
16189;SDS011;41754;51.498;7.540;2023-05-23T01:15:53;12.15;;;11.10;;
16189;SDS011;41754;51.498;7.540;2023-05-23T01:18:28;9.30;;;8.43;;
16189;SDS011;41754;51.498;7.540;2023-05-23T01:21:05;8.50;;;7.78;;
16189;SDS011;41754;51.498;7.540;2023-05-23T01:26:42;7.95;;;7.25;;
16189;SDS011;41754;51.498;7.540;2023-05-23T01:29:28;7.38;;;6.70;;
16189;SDS011;41754;51.498;7.540;2023-05-23T01:32:01;7.80;;;6.93;;
16189;SDS011;41754;51.498;7.540;2023-05-23T01:34:32;6.85;;;6.20;;
16189;SDS011;41754;51.498;7.540;2023-05-23T01:37:04;8.25;;;6.25;;
16189;SDS011;41754;51.498;7.540;2023-05-23T01:39:35;6.88;;;6.18;;
16189;SDS011;41754;51.498;7.540;2023-05-23T01:42:03;8.07;;;6.47;;
16189;SDS011;41754;51.498;7.540;2023-05-23T01:44:33;7.88;;;7.18;;
16189;SDS011;41754;51.498;7.540;2023-05-23T01:47:02;7.07;;;6.38;;
16189;SDS011;41754;51.498;7.540;2023-05-23T01:49:32;7.07;;;6.47;;
16189;SDS011;41754;51.498;7.540;2023-05-23T01:52:02;7.30;;;6.65;;
16189;SDS011;41754;51.498;7.540;2023-05-23T01:54:31;7.75;;;7.05;;
16189;SDS011;41754;51.498;7.540;2023-05-23T01:57:00;6.70;;;6.15;;
16189;SDS011;41754;51.498;7.540;2023-05-23T01:59:30;6.97;;;6.38;;
16189;SDS011;41754;51.498;7.540;2023-05-23T02:02:00;7.68;;;6.80;;
16189;SDS011;41754;51.498;7.540;2023-05-23T02:04:28;7.43;;;6.30;;
16189;SDS011;41754;51.498;7.540;2023-05-23T02:06:57;7.25;;;6.60;;
16189;SDS011;41754;51.498;7.540;2023-05-23T02:09:25;6.60;;;6.10;;
16189;SDS011;41754;51.498;7.540;2023-05-23T02:11:53;9.13;;;7.40;;
16189;SDS011;41754;51.498;7.540;2023-05-23T02:14:21;8.02;;;7.30;;
16189;SDS011;41754;51.498;7.540;2023-05-23T02:16:49;8.50;;;7.60;;
16189;SDS011;41754;51.498;7.540;2023-05-23T02:19:20;9.43;;;8.52;;
16189;SDS011;41754;51.498;7.540;2023-05-23T02:21:48;8.57;;;7.78;;
16189;SDS011;41754;51.498;7.540;2023-05-23T02:24:16;9.43;;;8.43;;
16189;SDS011;41754;51.498;7.540;2023-05-23T02:26:44;9.48;;;8.70;;
16189;SDS011;41754;51.498;7.540;2023-05-23T02:29:12;9.70;;;8.80;;
16189;SDS011;41754;51.498;7.540;2023-05-23T02:31:40;10.43;;;9.32;;
16189;SDS011;41754;51.498;7.540;2023-05-23T02:34:08;11.13;;;8.88;;
16189;SDS011;41754;51.498;7.540;2023-05-23T02:36:38;9.85;;;8.93;;
16189;SDS011;41754;51.498;7.540;2023-05-23T02:39:08;9.95;;;8.95;;
16189;SDS011;41754;51.498;7.540;2023-05-23T02:41:36;10.32;;;9.43;;
16189;SDS011;41754;51.498;7.540;2023-05-23T02:44:04;10.65;;;9.57;;
16189;SDS011;41754;51.498;7.540;2023-05-23T02:46:32;9.48;;;8.20;;
16189;SDS011;41754;51.498;7.540;2023-05-23T02:49:01;9.23;;;8.32;;
16189;SDS011;41754;51.498;7.540;2023-05-23T02:51:29;8.27;;;7.50;;
16189;SDS011;41754;51.498;7.540;2023-05-23T02:53:59;8.77;;;7.93;;
16189;SDS011;41754;51.498;7.540;2023-05-23T02:56:28;8.48;;;7.68;;
16189;SDS011;41754;51.498;7.540;2023-05-23T02:58:55;9.25;;;8.35;;
16189;SDS011;41754;51.498;7.540;2023-05-23T03:01:23;9.05;;;7.80;;
16189;SDS011;41754;51.498;7.540;2023-05-23T03:03:51;11.02;;;9.50;;
16189;SDS011;41754;51.498;7.540;2023-05-23T03:06:19;10.55;;;9.45;;
16189;SDS011;41754;51.498;7.540;2023-05-23T03:08:48;11.10;;;10.00;;
16189;SDS011;41754;51.498;7.540;2023-05-23T03:11:18;11.02;;;9.90;;
16189;SDS011;41754;51.498;7.540;2023-05-23T03:13:48;11.70;;;10.70;;
16189;SDS011;41754;51.498;7.540;2023-05-23T03:16:15;12.70;;;11.38;;
16189;SDS011;41754;51.498;7.540;2023-05-23T03:18:43;12.73;;;10.43;;
16189;SDS011;41754;51.498;7.540;2023-05-23T03:21:11;10.55;;;9.48;;
16189;SDS011;41754;51.498;7.540;2023-05-23T03:23:39;11.15;;;10.05;;
16189;SDS011;41754;51.498;7.540;2023-05-23T03:26:07;11.48;;;9.88;;
16189;SDS011;41754;51.498;7.540;2023-05-23T03:28:36;11.30;;;10.10;;
16189;SDS011;41754;51.498;7.540;2023-05-23T03:31:04;13.30;;;11.98;;
16189;SDS011;41754;51.498;7.540;2023-05-23T03:33:32;14.07;;;11.13;;
16189;SDS011;41754;51.498;7.540;2023-05-23T03:36:00;14.65;;;12.57;;
16189;SDS011;41754;51.498;7.540;2023-05-23T03:38:27;13.48;;;12.07;;
16189;SDS011;41754;51.498;7.540;2023-05-23T03:40:55;14.43;;;12.88;;
16189;SDS011;41754;51.498;7.540;2023-05-23T03:43:23;15.50;;;12.80;;
16189;SDS011;41754;51.498;7.540;2023-05-23T03:45:53;13.98;;;11.70;;
16189;SDS011;41754;51.498;7.540;2023-05-23T03:48:21;15.45;;;12.38;;
16189;SDS011;41754;51.498;7.540;2023-05-23T03:50:49;14.52;;;12.10;;
16189;SDS011;41754;51.498;7.540;2023-05-23T03:53:17;15.75;;;12.15;;
16189;SDS011;41754;51.498;7.540;2023-05-23T03:55:45;15.15;;;12.15;;
16189;SDS011;41754;51.498;7.540;2023-05-23T03:58:13;14.88;;;11.13;;
16189;SDS011;41754;51.498;7.540;2023-05-23T04:00:43;15.60;;;10.57;;
16189;SDS011;41754;51.498;7.540;2023-05-23T04:03:15;13.05;;;10.18;;
16189;SDS011;41754;51.498;7.540;2023-05-23T04:05:43;12.65;;;11.15;;
16189;SDS011;41754;51.498;7.540;2023-05-23T04:08:12;14.95;;;12.25;;
16189;SDS011;41754;51.498;7.540;2023-05-23T04:10:41;17.98;;;12.68;;
16189;SDS011;41754;51.498;7.540;2023-05-23T04:13:09;14.70;;;11.80;;
16189;SDS011;41754;51.498;7.540;2023-05-23T04:15:40;16.10;;;12.32;;
16189;SDS011;41754;51.498;7.540;2023-05-23T04:18:11;15.80;;;12.23;;
16189;SDS011;41754;51.498;7.540;2023-05-23T04:20:42;13.90;;;11.98;;
16189;SDS011;41754;51.498;7.540;2023-05-23T04:23:10;12.75;;;11.32;;
16189;SDS011;41754;51.498;7.540;2023-05-23T04:25:40;12.23;;;10.95;;
16189;SDS011;41754;51.498;7.540;2023-05-23T04:28:13;12.50;;;9.68;;
16189;SDS011;41754;51.498;7.540;2023-05-23T04:30:43;11.90;;;10.38;;
16189;SDS011;41754;51.498;7.540;2023-05-23T04:33:13;11.43;;;9.23;;
16189;SDS011;41754;51.498;7.540;2023-05-23T04:35:45;12.88;;;9.38;;
16189;SDS011;41754;51.498;7.540;2023-05-23T04:38:14;13.55;;;9.68;;
16189;SDS011;41754;51.498;7.540;2023-05-23T04:40:43;10.85;;;9.02;;
16189;SDS011;41754;51.498;7.540;2023-05-23T04:43:29;11.88;;;9.07;;
16189;SDS011;41754;51.498;7.540;2023-05-23T04:46:13;10.95;;;8.85;;
16189;SDS011;41754;51.498;7.540;2023-05-23T04:48:43;10.13;;;8.40;;
16189;SDS011;41754;51.498;7.540;2023-05-23T04:51:13;10.50;;;9.18;;
16189;SDS011;41754;51.498;7.540;2023-05-23T04:53:49;12.25;;;8.85;;
16189;SDS011;41754;51.498;7.540;2023-05-23T04:56:18;12.05;;;9.18;;
16189;SDS011;41754;51.498;7.540;2023-05-23T04:58:48;11.07;;;9.70;;
16189;SDS011;41754;51.498;7.540;2023-05-23T05:01:15;11.50;;;10.30;;
16189;SDS011;41754;51.498;7.540;2023-05-23T05:03:43;12.32;;;10.65;;
16189;SDS011;41754;51.498;7.540;2023-05-23T05:06:14;13.73;;;10.90;;
16189;SDS011;41754;51.498;7.540;2023-05-23T05:08:42;12.57;;;11.38;;
16189;SDS011;41754;51.498;7.540;2023-05-23T05:11:11;13.23;;;11.02;;
16189;SDS011;41754;51.498;7.540;2023-05-23T05:13:40;11.77;;;10.60;;
16189;SDS011;41754;51.498;7.540;2023-05-23T05:16:08;15.77;;;11.45;;
16189;SDS011;41754;51.498;7.540;2023-05-23T05:18:37;12.90;;;11.60;;
16189;SDS011;41754;51.498;7.540;2023-05-23T05:21:05;13.25;;;10.85;;
16189;SDS011;41754;51.498;7.540;2023-05-23T05:23:37;14.82;;;11.63;;
16189;SDS011;41754;51.498;7.540;2023-05-23T05:26:06;14.15;;;10.98;;
16189;SDS011;41754;51.498;7.540;2023-05-23T05:28:34;14.45;;;11.27;;
16189;SDS011;41754;51.498;7.540;2023-05-23T05:31:03;15.23;;;11.68;;
16189;SDS011;41754;51.498;7.540;2023-05-23T05:33:34;14.73;;;11.90;;
16189;SDS011;41754;51.498;7.540;2023-05-23T05:36:13;14.20;;;12.68;;
16189;SDS011;41754;51.498;7.540;2023-05-23T05:38:43;14.23;;;12.70;;
16189;SDS011;41754;51.498;7.540;2023-05-23T05:41:11;20.15;;;15.00;;
16189;SDS011;41754;51.498;7.540;2023-05-23T05:43:46;16.65;;;14.88;;
16189;SDS011;41754;51.498;7.540;2023-05-23T05:46:14;15.27;;;13.43;;
16189;SDS011;41754;51.498;7.540;2023-05-23T05:48:42;16.48;;;13.65;;
16189;SDS011;41754;51.498;7.540;2023-05-23T05:51:11;15.60;;;12.63;;
16189;SDS011;41754;51.498;7.540;2023-05-23T05:53:40;16.45;;;12.88;;
16189;SDS011;41754;51.498;7.540;2023-05-23T05:56:10;16.33;;;13.02;;
16189;SDS011;41754;51.498;7.540;2023-05-23T05:58:38;19.15;;;11.93;;
16189;SDS011;41754;51.498;7.540;2023-05-23T06:01:07;16.77;;;13.63;;
16189;SDS011;41754;51.498;7.540;2023-05-23T06:03:35;16.60;;;12.40;;
16189;SDS011;41754;51.498;7.540;2023-05-23T06:06:03;15.20;;;12.52;;
16189;SDS011;41754;51.498;7.540;2023-05-23T06:08:32;16.50;;;13.23;;
16189;SDS011;41754;51.498;7.540;2023-05-23T06:11:00;17.05;;;12.95;;
16189;SDS011;41754;51.498;7.540;2023-05-23T06:13:30;16.35;;;14.32;;
16189;SDS011;41754;51.498;7.540;2023-05-23T06:15:58;19.67;;;14.85;;
16189;SDS011;41754;51.498;7.540;2023-05-23T06:18:26;19.85;;;14.63;;
16189;SDS011;41754;51.498;7.540;2023-05-23T06:20:54;17.58;;;14.35;;
16189;SDS011;41754;51.498;7.540;2023-05-23T06:23:22;18.38;;;14.25;;
16189;SDS011;41754;51.498;7.540;2023-05-23T06:25:50;16.63;;;13.05;;
16189;SDS011;41754;51.498;7.540;2023-05-23T06:28:18;12.52;;;10.00;;
16189;SDS011;41754;51.498;7.540;2023-05-23T06:30:48;14.75;;;9.13;;
16189;SDS011;41754;51.498;7.540;2023-05-23T06:33:16;13.60;;;9.32;;
16189;SDS011;41754;51.498;7.540;2023-05-23T06:35:43;11.77;;;8.60;;
16189;SDS011;41754;51.498;7.540;2023-05-23T06:38:11;10.77;;;8.35;;
16189;SDS011;41754;51.498;7.540;2023-05-23T06:40:42;11.98;;;8.98;;
16189;SDS011;41754;51.498;7.540;2023-05-23T06:43:11;12.38;;;8.43;;
16189;SDS011;41754;51.498;7.540;2023-05-23T06:45:44;9.85;;;7.63;;
16189;SDS011;41754;51.498;7.540;2023-05-23T06:48:14;12.18;;;8.60;;
16189;SDS011;41754;51.498;7.540;2023-05-23T06:50:43;11.02;;;8.90;;
16189;SDS011;41754;51.498;7.540;2023-05-23T06:53:12;10.40;;;8.52;;
16189;SDS011;41754;51.498;7.540;2023-05-23T06:55:45;13.18;;;8.25;;
16189;SDS011;41754;51.498;7.540;2023-05-23T06:58:16;11.32;;;8.70;;
16189;SDS011;41754;51.498;7.540;2023-05-23T07:00:44;9.45;;;8.07;;
16189;SDS011;41754;51.498;7.540;2023-05-23T07:03:36;13.32;;;9.10;;
16189;SDS011;41754;51.498;7.540;2023-05-23T07:06:07;9.80;;;8.15;;
16189;SDS011;41754;51.498;7.540;2023-05-23T07:08:35;11.27;;;7.80;;
16189;SDS011;41754;51.498;7.540;2023-05-23T07:11:04;8.52;;;7.38;;
16189;SDS011;41754;51.498;7.540;2023-05-23T07:13:37;9.15;;;7.45;;
16189;SDS011;41754;51.498;7.540;2023-05-23T07:16:05;10.93;;;8.13;;
16189;SDS011;41754;51.498;7.540;2023-05-23T07:18:39;10.45;;;8.35;;
16189;SDS011;41754;51.498;7.540;2023-05-23T07:21:07;10.98;;;8.38;;
16189;SDS011;41754;51.498;7.540;2023-05-23T07:23:35;12.77;;;8.07;;
16189;SDS011;41754;51.498;7.540;2023-05-23T07:26:04;9.60;;;8.60;;
16189;SDS011;41754;51.498;7.540;2023-05-23T07:28:48;10.57;;;8.07;;
16189;SDS011;41754;51.498;7.540;2023-05-23T07:31:17;9.35;;;8.18;;
16189;SDS011;41754;51.498;7.540;2023-05-23T07:33:46;11.60;;;8.10;;
16189;SDS011;41754;51.498;7.540;2023-05-23T07:36:21;9.10;;;7.72;;
16189;SDS011;41754;51.498;7.540;2023-05-23T07:38:50;11.45;;;8.65;;
16189;SDS011;41754;51.498;7.540;2023-05-23T07:41:18;10.10;;;8.15;;
16189;SDS011;41754;51.498;7.540;2023-05-23T07:43:47;12.38;;;9.48;;
16189;SDS011;41754;51.498;7.540;2023-05-23T07:46:15;10.80;;;7.93;;
16189;SDS011;41754;51.498;7.540;2023-05-23T07:48:43;11.57;;;8.13;;
16189;SDS011;41754;51.498;7.540;2023-05-23T07:51:13;9.27;;;7.82;;
16189;SDS011;41754;51.498;7.540;2023-05-23T07:53:47;8.43;;;7.35;;
16189;SDS011;41754;51.498;7.540;2023-05-23T07:56:17;10.38;;;7.28;;
16189;SDS011;41754;51.498;7.540;2023-05-23T07:58:45;9.25;;;7.22;;
16189;SDS011;41754;51.498;7.540;2023-05-23T08:01:13;10.88;;;7.18;;
16189;SDS011;41754;51.498;7.540;2023-05-23T08:04:07;10.45;;;7.18;;
16189;SDS011;41754;51.498;7.540;2023-05-23T08:06:44;9.85;;;6.80;;
16189;SDS011;41754;51.498;7.540;2023-05-23T08:09:37;7.57;;;6.07;;
16189;SDS011;41754;51.498;7.540;2023-05-23T08:12:06;10.63;;;6.90;;
16189;SDS011;41754;51.498;7.540;2023-05-23T08:14:34;8.52;;;6.18;;
16189;SDS011;41754;51.498;7.540;2023-05-23T08:17:22;7.97;;;5.97;;
16189;SDS011;41754;51.498;7.540;2023-05-23T08:19:51;8.95;;;6.50;;
16189;SDS011;41754;51.498;7.540;2023-05-23T08:22:20;8.98;;;6.65;;
16189;SDS011;41754;51.498;7.540;2023-05-23T08:24:48;9.68;;;6.20;;
16189;SDS011;41754;51.498;7.540;2023-05-23T08:27:16;10.35;;;6.55;;
16189;SDS011;41754;51.498;7.540;2023-05-23T08:29:48;9.27;;;6.45;;
16189;SDS011;41754;51.498;7.540;2023-05-23T08:32:16;11.40;;;7.07;;
16189;SDS011;41754;51.498;7.540;2023-05-23T08:34:44;10.50;;;6.70;;
16189;SDS011;41754;51.498;7.540;2023-05-23T08:37:12;8.73;;;5.93;;
16189;SDS011;41754;51.498;7.540;2023-05-23T08:39:42;10.45;;;6.13;;
16189;SDS011;41754;51.498;7.540;2023-05-23T08:42:29;9.25;;;5.88;;
16189;SDS011;41754;51.498;7.540;2023-05-23T08:44:57;7.68;;;5.88;;
16189;SDS011;41754;51.498;7.540;2023-05-23T08:47:25;7.43;;;5.40;;
16189;SDS011;41754;51.498;7.540;2023-05-23T08:50:00;9.45;;;6.68;;
16189;SDS011;41754;51.498;7.540;2023-05-23T08:52:30;9.70;;;6.80;;
16189;SDS011;41754;51.498;7.540;2023-05-23T08:55:01;8.48;;;6.03;;
16189;SDS011;41754;51.498;7.540;2023-05-23T08:57:30;10.32;;;5.30;;
16189;SDS011;41754;51.498;7.540;2023-05-23T09:00:07;7.85;;;6.07;;
16189;SDS011;41754;51.498;7.540;2023-05-23T09:02:41;11.15;;;7.15;;
16189;SDS011;41754;51.498;7.540;2023-05-23T09:05:25;14.48;;;7.25;;
16189;SDS011;41754;51.498;7.540;2023-05-23T09:07:53;14.68;;;6.93;;
16189;SDS011;41754;51.498;7.540;2023-05-23T09:10:24;10.88;;;6.60;;
16189;SDS011;41754;51.498;7.540;2023-05-23T09:12:55;10.38;;;6.07;;
16189;SDS011;41754;51.498;7.540;2023-05-23T09:15:24;11.27;;;5.25;;
16189;SDS011;41754;51.498;7.540;2023-05-23T09:17:55;9.73;;;5.65;;
16189;SDS011;41754;51.498;7.540;2023-05-23T09:20:27;8.93;;;5.63;;
16189;SDS011;41754;51.498;7.540;2023-05-23T09:22:58;10.40;;;5.30;;
16189;SDS011;41754;51.498;7.540;2023-05-23T09:25:30;7.43;;;5.35;;
16189;SDS011;41754;51.498;7.540;2023-05-23T09:27:59;6.22;;;4.90;;
16189;SDS011;41754;51.498;7.540;2023-05-23T09:30:28;9.57;;;4.63;;
16189;SDS011;41754;51.498;7.540;2023-05-23T09:33:00;7.82;;;5.32;;
16189;SDS011;41754;51.498;7.540;2023-05-23T09:35:32;7.43;;;4.95;;
16189;SDS011;41754;51.498;7.540;2023-05-23T09:38:00;12.90;;;5.38;;
16189;SDS011;41754;51.498;7.540;2023-05-23T09:40:29;8.73;;;5.35;;
16189;SDS011;41754;51.498;7.540;2023-05-23T09:43:02;8.98;;;5.68;;
16189;SDS011;41754;51.498;7.540;2023-05-23T09:45:32;8.15;;;6.00;;
16189;SDS011;41754;51.498;7.540;2023-05-23T09:48:01;10.88;;;6.72;;
16189;SDS011;41754;51.498;7.540;2023-05-23T09:50:31;11.88;;;7.20;;
16189;SDS011;41754;51.498;7.540;2023-05-23T09:53:02;12.68;;;7.10;;
16189;SDS011;41754;51.498;7.540;2023-05-23T09:55:31;13.90;;;8.02;;
16189;SDS011;41754;51.498;7.540;2023-05-23T09:57:59;17.90;;;10.90;;
16189;SDS011;41754;51.498;7.540;2023-05-23T10:00:27;17.67;;;8.32;;
16189;SDS011;41754;51.498;7.540;2023-05-23T10:02:58;15.93;;;7.10;;
16189;SDS011;41754;51.498;7.540;2023-05-23T10:05:37;13.48;;;7.65;;
16189;SDS011;41754;51.498;7.540;2023-05-23T10:08:11;12.90;;;7.45;;
16189;SDS011;41754;51.498;7.540;2023-05-23T10:13:59;10.65;;;6.63;;
16189;SDS011;41754;51.498;7.540;2023-05-23T10:16:30;10.35;;;5.70;;
16189;SDS011;41754;51.498;7.540;2023-05-23T10:19:09;9.95;;;6.20;;
16189;SDS011;41754;51.498;7.540;2023-05-23T10:21:50;11.80;;;6.63;;
16189;SDS011;41754;51.498;7.540;2023-05-23T10:24:25;10.48;;;6.25;;
16189;SDS011;41754;51.498;7.540;2023-05-23T10:26:54;13.43;;;6.55;;
16189;SDS011;41754;51.498;7.540;2023-05-23T10:29:24;8.80;;;5.72;;
16189;SDS011;41754;51.498;7.540;2023-05-23T10:31:52;10.15;;;6.82;;
16189;SDS011;41754;51.498;7.540;2023-05-23T10:34:24;12.00;;;6.57;;
16189;SDS011;41754;51.498;7.540;2023-05-23T10:36:59;11.73;;;7.50;;
16189;SDS011;41754;51.498;7.540;2023-05-23T10:39:35;11.07;;;6.72;;
16189;SDS011;41754;51.498;7.540;2023-05-23T10:42:14;10.95;;;6.88;;
16189;SDS011;41754;51.498;7.540;2023-05-23T10:44:47;11.13;;;5.97;;
16189;SDS011;41754;51.498;7.540;2023-05-23T10:47:24;10.82;;;6.13;;
16189;SDS011;41754;51.498;7.540;2023-05-23T10:49:53;10.60;;;6.32;;
16189;SDS011;41754;51.498;7.540;2023-05-23T10:52:22;10.40;;;5.80;;
16189;SDS011;41754;51.498;7.540;2023-05-23T10:54:53;6.95;;;5.75;;
16189;SDS011;41754;51.498;7.540;2023-05-23T10:57:24;9.10;;;6.25;;
16189;SDS011;41754;51.498;7.540;2023-05-23T10:59:54;12.85;;;5.55;;
16189;SDS011;41754;51.498;7.540;2023-05-23T11:02:24;10.70;;;5.85;;
16189;SDS011;41754;51.498;7.540;2023-05-23T11:13:20;8.77;;;5.10;;
16189;SDS011;41754;51.498;7.540;2023-05-23T11:15:50;8.88;;;5.20;;
16189;SDS011;41754;51.498;7.540;2023-05-23T11:18:19;8.07;;;5.28;;
16189;SDS011;41754;51.498;7.540;2023-05-23T11:20:49;10.65;;;5.25;;
16189;SDS011;41754;51.498;7.540;2023-05-23T11:23:20;7.78;;;4.88;;
16189;SDS011;41754;51.498;7.540;2023-05-23T11:25:49;6.88;;;4.68;;
16189;SDS011;41754;51.498;7.540;2023-05-23T11:28:19;9.32;;;5.43;;
16189;SDS011;41754;51.498;7.540;2023-05-23T11:30:47;9.52;;;5.70;;
16189;SDS011;41754;51.498;7.540;2023-05-23T11:33:17;10.73;;;5.88;;
16189;SDS011;41754;51.498;7.540;2023-05-23T11:35:46;9.48;;;4.90;;
16189;SDS011;41754;51.498;7.540;2023-05-23T11:38:17;16.25;;;10.85;;
16189;SDS011;41754;51.498;7.540;2023-05-23T11:40:45;10.85;;;4.68;;
16189;SDS011;41754;51.498;7.540;2023-05-23T11:43:14;9.30;;;5.25;;
16189;SDS011;41754;51.498;7.540;2023-05-23T11:45:43;7.60;;;4.63;;
16189;SDS011;41754;51.498;7.540;2023-05-23T11:48:13;10.57;;;4.78;;
16189;SDS011;41754;51.498;7.540;2023-05-23T11:50:45;9.82;;;5.03;;
16189;SDS011;41754;51.498;7.540;2023-05-23T11:53:14;5.15;;;4.13;;
16189;SDS011;41754;51.498;7.540;2023-05-23T11:55:49;9.70;;;3.97;;
16189;SDS011;41754;51.498;7.540;2023-05-23T11:58:20;8.98;;;4.10;;
16189;SDS011;41754;51.498;7.540;2023-05-23T12:00:48;8.15;;;4.15;;
16189;SDS011;41754;51.498;7.540;2023-05-23T12:03:20;7.57;;;4.18;;
16189;SDS011;41754;51.498;7.540;2023-05-23T12:05:49;7.65;;;3.67;;
16189;SDS011;41754;51.498;7.540;2023-05-23T12:08:17;7.78;;;4.03;;
16189;SDS011;41754;51.498;7.540;2023-05-23T12:10:49;9.20;;;4.35;;
16189;SDS011;41754;51.498;7.540;2023-05-23T12:13:18;8.95;;;4.00;;
16189;SDS011;41754;51.498;7.540;2023-05-23T12:15:52;7.55;;;4.43;;
16189;SDS011;41754;51.498;7.540;2023-05-23T12:18:21;8.30;;;4.20;;
16189;SDS011;41754;51.498;7.540;2023-05-23T12:20:51;13.13;;;4.30;;
16189;SDS011;41754;51.498;7.540;2023-05-23T12:23:20;10.07;;;3.80;;
16189;SDS011;41754;51.498;7.540;2023-05-23T12:25:49;9.40;;;3.70;;
16189;SDS011;41754;51.498;7.540;2023-05-23T12:28:18;9.65;;;3.15;;
16189;SDS011;41754;51.498;7.540;2023-05-23T12:30:46;9.73;;;3.63;;
16189;SDS011;41754;51.498;7.540;2023-05-23T12:33:14;9.00;;;3.80;;
16189;SDS011;41754;51.498;7.540;2023-05-23T12:35:45;10.80;;;4.05;;
16189;SDS011;41754;51.498;7.540;2023-05-23T12:38:15;8.57;;;3.72;;
16189;SDS011;41754;51.498;7.540;2023-05-23T12:40:43;9.60;;;3.70;;
16189;SDS011;41754;51.498;7.540;2023-05-23T12:43:13;8.65;;;3.63;;
16189;SDS011;41754;51.498;7.540;2023-05-23T12:45:41;7.90;;;3.35;;
16189;SDS011;41754;51.498;7.540;2023-05-23T12:48:09;8.10;;;3.78;;
16189;SDS011;41754;51.498;7.540;2023-05-23T12:50:38;6.85;;;3.35;;
16189;SDS011;41754;51.498;7.540;2023-05-23T12:53:06;6.90;;;3.45;;
16189;SDS011;41754;51.498;7.540;2023-05-23T12:55:35;7.50;;;3.97;;
16189;SDS011;41754;51.498;7.540;2023-05-23T12:58:03;9.40;;;4.32;;
16189;SDS011;41754;51.498;7.540;2023-05-23T13:00:32;9.32;;;3.60;;
16189;SDS011;41754;51.498;7.540;2023-05-23T13:02:59;7.68;;;3.95;;
16189;SDS011;41754;51.498;7.540;2023-05-23T13:05:27;7.38;;;4.13;;
16189;SDS011;41754;51.498;7.540;2023-05-23T13:07:55;6.22;;;3.60;;
16189;SDS011;41754;51.498;7.540;2023-05-23T13:10:24;5.78;;;3.55;;
16189;SDS011;41754;51.498;7.540;2023-05-23T13:12:56;10.80;;;4.63;;
16189;SDS011;41754;51.498;7.540;2023-05-23T13:15:24;11.93;;;6.53;;
16189;SDS011;41754;51.498;7.540;2023-05-23T13:17:52;5.85;;;3.45;;
16189;SDS011;41754;51.498;7.540;2023-05-23T13:20:20;10.63;;;4.10;;
16189;SDS011;41754;51.498;7.540;2023-05-23T13:22:48;7.63;;;3.58;;
16189;SDS011;41754;51.498;7.540;2023-05-23T13:25:16;13.55;;;4.38;;
16189;SDS011;41754;51.498;7.540;2023-05-23T13:27:44;10.40;;;4.68;;
16189;SDS011;41754;51.498;7.540;2023-05-23T13:30:15;8.32;;;4.18;;
16189;SDS011;41754;51.498;7.540;2023-05-23T13:32:43;8.63;;;3.90;;
16189;SDS011;41754;51.498;7.540;2023-05-23T13:35:11;10.20;;;3.55;;
16189;SDS011;41754;51.498;7.540;2023-05-23T13:37:39;9.88;;;4.13;;
16189;SDS011;41754;51.498;7.540;2023-05-23T13:40:10;11.38;;;3.95;;
16189;SDS011;41754;51.498;7.540;2023-05-23T13:42:39;8.18;;;3.85;;
16189;SDS011;41754;51.498;7.540;2023-05-23T13:45:07;8.43;;;4.00;;
16189;SDS011;41754;51.498;7.540;2023-05-23T13:47:37;9.65;;;4.07;;
16189;SDS011;41754;51.498;7.540;2023-05-23T13:50:05;6.03;;;3.55;;
16189;SDS011;41754;51.498;7.540;2023-05-23T13:52:34;8.82;;;3.95;;
16189;SDS011;41754;51.498;7.540;2023-05-23T13:55:02;7.10;;;3.42;;
16189;SDS011;41754;51.498;7.540;2023-05-23T13:57:31;8.30;;;4.65;;
16189;SDS011;41754;51.498;7.540;2023-05-23T13:59:59;6.10;;;3.80;;
16189;SDS011;41754;51.498;7.540;2023-05-23T14:02:29;11.57;;;4.35;;
16189;SDS011;41754;51.498;7.540;2023-05-23T14:04:59;8.57;;;4.18;;
16189;SDS011;41754;51.498;7.540;2023-05-23T14:07:27;9.93;;;4.05;;
16189;SDS011;41754;51.498;7.540;2023-05-23T14:09:55;8.10;;;3.80;;
16189;SDS011;41754;51.498;7.540;2023-05-23T14:12:24;7.03;;;4.30;;
16189;SDS011;41754;51.498;7.540;2023-05-23T14:14:52;9.40;;;4.18;;
16189;SDS011;41754;51.498;7.540;2023-05-23T14:17:20;9.07;;;4.00;;
16189;SDS011;41754;51.498;7.540;2023-05-23T14:19:48;6.55;;;3.70;;
16189;SDS011;41754;51.498;7.540;2023-05-23T14:22:18;8.93;;;4.13;;
16189;SDS011;41754;51.498;7.540;2023-05-23T14:24:46;8.88;;;3.92;;
16189;SDS011;41754;51.498;7.540;2023-05-23T14:27:14;9.88;;;3.47;;
16189;SDS011;41754;51.498;7.540;2023-05-23T14:29:41;7.15;;;3.70;;
16189;SDS011;41754;51.498;7.540;2023-05-23T14:32:11;10.27;;;3.75;;
16189;SDS011;41754;51.498;7.540;2023-05-23T14:34:40;10.90;;;4.22;;
16189;SDS011;41754;51.498;7.540;2023-05-23T14:37:08;7.03;;;3.97;;
16189;SDS011;41754;51.498;7.540;2023-05-23T14:39:37;7.97;;;4.50;;
16189;SDS011;41754;51.498;7.540;2023-05-23T14:42:07;9.85;;;3.80;;
16189;SDS011;41754;51.498;7.540;2023-05-23T14:44:34;7.32;;;4.00;;
16189;SDS011;41754;51.498;7.540;2023-05-23T14:47:02;5.70;;;3.40;;
16189;SDS011;41754;51.498;7.540;2023-05-23T14:49:31;7.55;;;4.18;;
16189;SDS011;41754;51.498;7.540;2023-05-23T14:51:59;8.43;;;3.47;;
16189;SDS011;41754;51.498;7.540;2023-05-23T14:54:26;7.10;;;3.17;;
16189;SDS011;41754;51.498;7.540;2023-05-23T14:56:56;7.68;;;3.15;;
16189;SDS011;41754;51.498;7.540;2023-05-23T14:59:23;8.45;;;3.95;;
16189;SDS011;41754;51.498;7.540;2023-05-23T15:01:51;9.23;;;3.47;;
16189;SDS011;41754;51.498;7.540;2023-05-23T15:04:19;9.55;;;3.60;;
16189;SDS011;41754;51.498;7.540;2023-05-23T15:06:47;8.05;;;3.42;;